sensor_id;sensor_type;location;lat;lon;timestamp;temperature;humidity
46029;DHT22;31763;48.180;7.904;2022-10-16T00:01:39;15.30;99.90
46029;DHT22;31763;48.180;7.904;2022-10-16T00:04:05;15.30;99.90
46029;DHT22;31763;48.180;7.904;2022-10-16T00:06:32;15.20;99.90
46029;DHT22;31763;48.180;7.904;2022-10-16T00:09:00;15.20;99.90
46029;DHT22;31763;48.180;7.904;2022-10-16T00:11:32;15.10;99.90
46029;DHT22;31763;48.180;7.904;2022-10-16T00:14:02;15.10;99.90
46029;DHT22;31763;48.180;7.904;2022-10-16T00:16:30;15.10;99.90
46029;DHT22;31763;48.180;7.904;2022-10-16T00:18:57;15.10;99.90
46029;DHT22;31763;48.180;7.904;2022-10-16T00:21:27;15.10;99.90
46029;DHT22;31763;48.180;7.904;2022-10-16T00:24:05;15.00;99.90
46029;DHT22;31763;48.180;7.904;2022-10-16T00:26:35;15.00;99.90
46029;DHT22;31763;48.180;7.904;2022-10-16T00:29:04;15.00;99.90
46029;DHT22;31763;48.180;7.904;2022-10-16T00:31:31;15.00;99.90
46029;DHT22;31763;48.180;7.904;2022-10-16T00:33:59;15.00;99.90
46029;DHT22;31763;48.180;7.904;2022-10-16T00:36:27;15.00;99.90
46029;DHT22;31763;48.180;7.904;2022-10-16T00:38:56;15.00;99.90
46029;DHT22;31763;48.180;7.904;2022-10-16T00:41:24;15.00;99.90
46029;DHT22;31763;48.180;7.904;2022-10-16T00:46:40;15.00;99.90
46029;DHT22;31763;48.180;7.904;2022-10-16T00:49:16;15.00;99.90
46029;DHT22;31763;48.180;7.904;2022-10-16T00:51:45;15.00;99.90
46029;DHT22;31763;48.180;7.904;2022-10-16T00:54:20;15.10;99.90
46029;DHT22;31763;48.180;7.904;2022-10-16T00:56:50;15.20;99.90
46029;DHT22;31763;48.180;7.904;2022-10-16T00:59:24;15.30;99.90
46029;DHT22;31763;48.180;7.904;2022-10-16T01:02:00;15.20;99.90
46029;DHT22;31763;48.180;7.904;2022-10-16T01:04:34;15.20;99.90
46029;DHT22;31763;48.180;7.904;2022-10-16T01:07:33;15.30;99.90
46029;DHT22;31763;48.180;7.904;2022-10-16T01:10:51;15.20;99.90
46029;DHT22;31763;48.180;7.904;2022-10-16T01:13:59;15.20;99.90
46029;DHT22;31763;48.180;7.904;2022-10-16T01:19:40;15.40;99.90
46029;DHT22;31763;48.180;7.904;2022-10-16T01:23:25;15.40;99.90
46029;DHT22;31763;48.180;7.904;2022-10-16T01:31:15;15.80;99.90
46029;DHT22;31763;48.180;7.904;2022-10-16T01:33:58;15.80;99.90
46029;DHT22;31763;48.180;7.904;2022-10-16T01:36:37;15.80;99.90
46029;DHT22;31763;48.180;7.904;2022-10-16T01:39:36;15.80;99.90
46029;DHT22;31763;48.180;7.904;2022-10-16T01:42:22;15.90;99.90
46029;DHT22;31763;48.180;7.904;2022-10-16T01:45:11;16.00;99.90
46029;DHT22;31763;48.180;7.904;2022-10-16T01:47:53;16.10;99.90
46029;DHT22;31763;48.180;7.904;2022-10-16T01:50:44;16.00;99.90
46029;DHT22;31763;48.180;7.904;2022-10-16T01:53:25;16.00;99.90
46029;DHT22;31763;48.180;7.904;2022-10-16T01:55:54;15.90;99.90
46029;DHT22;31763;48.180;7.904;2022-10-16T01:58:23;15.90;99.90
46029;DHT22;31763;48.180;7.904;2022-10-16T02:00:52;15.90;99.90
46029;DHT22;31763;48.180;7.904;2022-10-16T02:03:20;15.90;99.90
46029;DHT22;31763;48.180;7.904;2022-10-16T02:05:53;16.00;99.90
46029;DHT22;31763;48.180;7.904;2022-10-16T02:08:22;16.10;99.90
46029;DHT22;31763;48.180;7.904;2022-10-16T02:10:52;16.10;99.90
46029;DHT22;31763;48.180;7.904;2022-10-16T02:13:26;16.10;99.90
46029;DHT22;31763;48.180;7.904;2022-10-16T02:15:56;16.00;99.90
46029;DHT22;31763;48.180;7.904;2022-10-16T02:18:23;16.10;99.90
46029;DHT22;31763;48.180;7.904;2022-10-16T02:24:16;16.10;99.90
46029;DHT22;31763;48.180;7.904;2022-10-16T02:27:19;15.90;99.90
46029;DHT22;31763;48.180;7.904;2022-10-16T02:29:57;15.80;99.90
46029;DHT22;31763;48.180;7.904;2022-10-16T02:32:35;15.80;99.90
46029;DHT22;31763;48.180;7.904;2022-10-16T02:35:04;15.70;99.90
46029;DHT22;31763;48.180;7.904;2022-10-16T02:37:32;15.70;99.90
46029;DHT22;31763;48.180;7.904;2022-10-16T02:40:00;15.80;99.90
46029;DHT22;31763;48.180;7.904;2022-10-16T02:42:29;15.70;99.90
46029;DHT22;31763;48.180;7.904;2022-10-16T02:44:59;15.70;99.90
46029;DHT22;31763;48.180;7.904;2022-10-16T02:47:26;15.80;99.90
46029;DHT22;31763;48.180;7.904;2022-10-16T02:49:53;15.80;99.90
46029;DHT22;31763;48.180;7.904;2022-10-16T02:52:20;15.90;99.90
46029;DHT22;31763;48.180;7.904;2022-10-16T02:54:46;16.00;99.90
46029;DHT22;31763;48.180;7.904;2022-10-16T02:57:13;16.10;99.90
46029;DHT22;31763;48.180;7.904;2022-10-16T02:59:40;16.10;99.90
46029;DHT22;31763;48.180;7.904;2022-10-16T03:02:07;16.10;99.90
46029;DHT22;31763;48.180;7.904;2022-10-16T03:04:34;16.20;99.90
46029;DHT22;31763;48.180;7.904;2022-10-16T03:07:00;16.20;99.90
46029;DHT22;31763;48.180;7.904;2022-10-16T03:09:27;16.30;99.90
46029;DHT22;31763;48.180;7.904;2022-10-16T03:11:54;16.30;99.90
46029;DHT22;31763;48.180;7.904;2022-10-16T03:14:21;16.50;99.90
46029;DHT22;31763;48.180;7.904;2022-10-16T03:16:48;16.50;99.90
46029;DHT22;31763;48.180;7.904;2022-10-16T03:19:16;16.40;99.90
46029;DHT22;31763;48.180;7.904;2022-10-16T03:21:44;16.50;99.90
46029;DHT22;31763;48.180;7.904;2022-10-16T03:24:10;16.60;99.90
46029;DHT22;31763;48.180;7.904;2022-10-16T03:26:37;16.60;99.90
46029;DHT22;31763;48.180;7.904;2022-10-16T03:29:04;16.70;99.90
46029;DHT22;31763;48.180;7.904;2022-10-16T03:31:31;16.70;99.90
46029;DHT22;31763;48.180;7.904;2022-10-16T03:33:58;16.60;99.90
46029;DHT22;31763;48.180;7.904;2022-10-16T03:36:25;16.70;99.90
46029;DHT22;31763;48.180;7.904;2022-10-16T03:38:52;16.60;99.90
46029;DHT22;31763;48.180;7.904;2022-10-16T03:41:19;16.70;99.90
46029;DHT22;31763;48.180;7.904;2022-10-16T03:43:45;16.70;99.90
46029;DHT22;31763;48.180;7.904;2022-10-16T03:46:12;16.70;99.90
46029;DHT22;31763;48.180;7.904;2022-10-16T03:48:39;16.80;99.90
46029;DHT22;31763;48.180;7.904;2022-10-16T03:51:06;16.80;99.90
46029;DHT22;31763;48.180;7.904;2022-10-16T03:53:33;16.70;99.90
46029;DHT22;31763;48.180;7.904;2022-10-16T03:55:59;16.70;99.90
46029;DHT22;31763;48.180;7.904;2022-10-16T03:58:26;16.80;99.90
46029;DHT22;31763;48.180;7.904;2022-10-16T04:00:53;16.80;99.90
46029;DHT22;31763;48.180;7.904;2022-10-16T04:03:21;16.80;99.90
46029;DHT22;31763;48.180;7.904;2022-10-16T04:05:47;16.70;99.90
46029;DHT22;31763;48.180;7.904;2022-10-16T04:08:15;16.70;99.90
46029;DHT22;31763;48.180;7.904;2022-10-16T04:10:43;16.70;99.90
46029;DHT22;31763;48.180;7.904;2022-10-16T04:13:10;16.70;99.90
46029;DHT22;31763;48.180;7.904;2022-10-16T04:15:38;16.80;99.90
46029;DHT22;31763;48.180;7.904;2022-10-16T04:18:05;16.70;99.90
46029;DHT22;31763;48.180;7.904;2022-10-16T04:20:33;16.70;99.90
46029;DHT22;31763;48.180;7.904;2022-10-16T04:23:00;16.70;99.90
46029;DHT22;31763;48.180;7.904;2022-10-16T04:25:26;16.70;99.90
46029;DHT22;31763;48.180;7.904;2022-10-16T04:27:54;16.70;99.90
46029;DHT22;31763;48.180;7.904;2022-10-16T04:30:21;16.60;99.90
46029;DHT22;31763;48.180;7.904;2022-10-16T04:32:52;16.60;99.90
46029;DHT22;31763;48.180;7.904;2022-10-16T04:35:20;16.60;99.90
46029;DHT22;31763;48.180;7.904;2022-10-16T04:37:47;16.60;99.90
46029;DHT22;31763;48.180;7.904;2022-10-16T04:40:14;16.60;99.90
46029;DHT22;31763;48.180;7.904;2022-10-16T04:42:41;16.50;99.90
46029;DHT22;31763;48.180;7.904;2022-10-16T04:45:09;16.70;99.90
46029;DHT22;31763;48.180;7.904;2022-10-16T04:47:41;16.70;99.90
46029;DHT22;31763;48.180;7.904;2022-10-16T04:50:08;16.70;99.90
46029;DHT22;31763;48.180;7.904;2022-10-16T04:52:35;16.70;99.90
46029;DHT22;31763;48.180;7.904;2022-10-16T04:55:02;16.70;99.90
46029;DHT22;31763;48.180;7.904;2022-10-16T04:57:29;16.70;99.90
46029;DHT22;31763;48.180;7.904;2022-10-16T04:59:56;16.80;99.90
46029;DHT22;31763;48.180;7.904;2022-10-16T05:02:23;16.80;99.90
46029;DHT22;31763;48.180;7.904;2022-10-16T05:04:50;16.80;99.90
46029;DHT22;31763;48.180;7.904;2022-10-16T05:07:18;17.00;99.90
46029;DHT22;31763;48.180;7.904;2022-10-16T05:09:44;17.00;99.90
46029;DHT22;31763;48.180;7.904;2022-10-16T05:12:11;16.90;99.90
46029;DHT22;31763;48.180;7.904;2022-10-16T05:14:38;16.90;99.90
46029;DHT22;31763;48.180;7.904;2022-10-16T05:17:05;16.90;99.90
46029;DHT22;31763;48.180;7.904;2022-10-16T05:19:32;16.90;99.90
46029;DHT22;31763;48.180;7.904;2022-10-16T05:21:59;16.80;99.90
46029;DHT22;31763;48.180;7.904;2022-10-16T05:24:26;16.80;99.90
46029;DHT22;31763;48.180;7.904;2022-10-16T05:26:52;16.90;99.90
46029;DHT22;31763;48.180;7.904;2022-10-16T05:29:20;16.90;99.90
46029;DHT22;31763;48.180;7.904;2022-10-16T05:31:50;16.80;99.90
46029;DHT22;31763;48.180;7.904;2022-10-16T05:34:18;16.70;99.90
46029;DHT22;31763;48.180;7.904;2022-10-16T05:36:45;16.80;99.90
46029;DHT22;31763;48.180;7.904;2022-10-16T05:39:14;16.90;99.90
46029;DHT22;31763;48.180;7.904;2022-10-16T05:41:42;16.90;99.90
46029;DHT22;31763;48.180;7.904;2022-10-16T05:44:09;17.00;99.90
46029;DHT22;31763;48.180;7.904;2022-10-16T05:46:36;17.00;99.90
46029;DHT22;31763;48.180;7.904;2022-10-16T05:49:03;17.00;99.90
46029;DHT22;31763;48.180;7.904;2022-10-16T05:51:30;17.00;99.90
46029;DHT22;31763;48.180;7.904;2022-10-16T05:53:56;16.90;99.90
46029;DHT22;31763;48.180;7.904;2022-10-16T05:56:23;16.90;99.90
46029;DHT22;31763;48.180;7.904;2022-10-16T05:58:50;16.90;99.90
46029;DHT22;31763;48.180;7.904;2022-10-16T06:01:18;16.90;99.90
46029;DHT22;31763;48.180;7.904;2022-10-16T06:03:45;17.00;99.90
46029;DHT22;31763;48.180;7.904;2022-10-16T06:06:14;17.00;99.90
46029;DHT22;31763;48.180;7.904;2022-10-16T06:08:44;17.10;99.90
46029;DHT22;31763;48.180;7.904;2022-10-16T06:11:17;17.10;99.90
46029;DHT22;31763;48.180;7.904;2022-10-16T06:13:45;17.20;99.90
46029;DHT22;31763;48.180;7.904;2022-10-16T06:16:16;17.20;99.90
46029;DHT22;31763;48.180;7.904;2022-10-16T06:18:42;17.20;99.90
46029;DHT22;31763;48.180;7.904;2022-10-16T06:21:11;17.10;99.90
46029;DHT22;31763;48.180;7.904;2022-10-16T06:23:40;17.20;99.90
46029;DHT22;31763;48.180;7.904;2022-10-16T06:28:34;17.20;99.90
46029;DHT22;31763;48.180;7.904;2022-10-16T06:31:03;17.00;99.90
46029;DHT22;31763;48.180;7.904;2022-10-16T06:33:34;17.00;99.90
46029;DHT22;31763;48.180;7.904;2022-10-16T06:36:15;16.90;99.90
46029;DHT22;31763;48.180;7.904;2022-10-16T06:38:44;16.80;99.90
46029;DHT22;31763;48.180;7.904;2022-10-16T06:41:19;16.70;99.90
46029;DHT22;31763;48.180;7.904;2022-10-16T06:43:47;16.70;99.90
46029;DHT22;31763;48.180;7.904;2022-10-16T06:46:18;16.60;99.90
46029;DHT22;31763;48.180;7.904;2022-10-16T06:48:46;16.60;99.90
46029;DHT22;31763;48.180;7.904;2022-10-16T06:51:14;16.70;99.90
46029;DHT22;31763;48.180;7.904;2022-10-16T06:53:47;16.70;99.90
46029;DHT22;31763;48.180;7.904;2022-10-16T06:56:32;16.90;99.90
46029;DHT22;31763;48.180;7.904;2022-10-16T06:58:59;16.90;99.90
46029;DHT22;31763;48.180;7.904;2022-10-16T07:01:27;16.90;99.90
46029;DHT22;31763;48.180;7.904;2022-10-16T07:03:54;16.90;99.90
46029;DHT22;31763;48.180;7.904;2022-10-16T07:06:23;16.80;99.90
46029;DHT22;31763;48.180;7.904;2022-10-16T07:08:51;16.80;99.90
46029;DHT22;31763;48.180;7.904;2022-10-16T07:11:20;16.80;99.90
46029;DHT22;31763;48.180;7.904;2022-10-16T07:13:49;17.00;99.90
46029;DHT22;31763;48.180;7.904;2022-10-16T07:16:24;17.10;99.90
46029;DHT22;31763;48.180;7.904;2022-10-16T07:18:55;17.20;99.90
46029;DHT22;31763;48.180;7.904;2022-10-16T07:21:31;17.20;99.90
46029;DHT22;31763;48.180;7.904;2022-10-16T07:24:03;17.30;99.90
46029;DHT22;31763;48.180;7.904;2022-10-16T07:26:35;17.40;99.90
46029;DHT22;31763;48.180;7.904;2022-10-16T07:29:02;17.30;99.90
46029;DHT22;31763;48.180;7.904;2022-10-16T07:31:30;17.30;99.90
46029;DHT22;31763;48.180;7.904;2022-10-16T07:33:58;17.40;99.90
46029;DHT22;31763;48.180;7.904;2022-10-16T07:36:25;17.30;99.90
46029;DHT22;31763;48.180;7.904;2022-10-16T07:38:53;17.40;99.90
46029;DHT22;31763;48.180;7.904;2022-10-16T07:41:25;17.30;99.90
46029;DHT22;31763;48.180;7.904;2022-10-16T07:43:53;17.30;99.90
46029;DHT22;31763;48.180;7.904;2022-10-16T07:46:22;17.40;99.90
46029;DHT22;31763;48.180;7.904;2022-10-16T07:48:49;17.40;99.90
46029;DHT22;31763;48.180;7.904;2022-10-16T07:51:21;17.10;99.90
46029;DHT22;31763;48.180;7.904;2022-10-16T07:53:50;17.20;99.90
46029;DHT22;31763;48.180;7.904;2022-10-16T07:56:18;17.30;99.90
46029;DHT22;31763;48.180;7.904;2022-10-16T07:58:46;17.40;99.90
46029;DHT22;31763;48.180;7.904;2022-10-16T08:01:14;17.50;99.90
46029;DHT22;31763;48.180;7.904;2022-10-16T08:03:46;17.50;99.90
46029;DHT22;31763;48.180;7.904;2022-10-16T08:06:17;17.50;99.90
46029;DHT22;31763;48.180;7.904;2022-10-16T08:08:50;17.50;99.90
46029;DHT22;31763;48.180;7.904;2022-10-16T08:11:17;17.60;99.90
46029;DHT22;31763;48.180;7.904;2022-10-16T08:13:44;17.70;99.90
46029;DHT22;31763;48.180;7.904;2022-10-16T08:16:11;18.00;99.90
46029;DHT22;31763;48.180;7.904;2022-10-16T08:18:39;18.20;99.90
46029;DHT22;31763;48.180;7.904;2022-10-16T08:21:07;18.40;99.90
46029;DHT22;31763;48.180;7.904;2022-10-16T08:23:47;18.30;99.90
46029;DHT22;31763;48.180;7.904;2022-10-16T08:26:22;18.20;99.90
46029;DHT22;31763;48.180;7.904;2022-10-16T08:28:50;18.10;99.90
46029;DHT22;31763;48.180;7.904;2022-10-16T08:31:18;18.10;99.90
46029;DHT22;31763;48.180;7.904;2022-10-16T08:33:45;18.00;99.90
46029;DHT22;31763;48.180;7.904;2022-10-16T08:36:14;18.00;99.90
46029;DHT22;31763;48.180;7.904;2022-10-16T08:38:41;18.10;99.90
46029;DHT22;31763;48.180;7.904;2022-10-16T08:41:21;18.00;99.90
46029;DHT22;31763;48.180;7.904;2022-10-16T08:44:27;18.10;99.90
46029;DHT22;31763;48.180;7.904;2022-10-16T08:47:20;18.00;99.90
46029;DHT22;31763;48.180;7.904;2022-10-16T08:50:14;18.00;99.90
46029;DHT22;31763;48.180;7.904;2022-10-16T08:52:45;18.10;99.90
46029;DHT22;31763;48.180;7.904;2022-10-16T08:55:28;18.20;99.90
46029;DHT22;31763;48.180;7.904;2022-10-16T08:57:59;18.20;99.90
46029;DHT22;31763;48.180;7.904;2022-10-16T09:00:37;18.30;99.90
46029;DHT22;31763;48.180;7.904;2022-10-16T09:03:39;18.40;99.90
46029;DHT22;31763;48.180;7.904;2022-10-16T09:07:04;18.50;99.90
46029;DHT22;31763;48.180;7.904;2022-10-16T09:10:51;18.50;99.90
46029;DHT22;31763;48.180;7.904;2022-10-16T09:17:03;18.70;99.90
46029;DHT22;31763;48.180;7.904;2022-10-16T09:19:46;18.70;99.90
46029;DHT22;31763;48.180;7.904;2022-10-16T09:22:35;18.70;99.90
46029;DHT22;31763;48.180;7.904;2022-10-16T09:25:12;18.80;99.90
46029;DHT22;31763;48.180;7.904;2022-10-16T09:27:47;18.80;99.90
46029;DHT22;31763;48.180;7.904;2022-10-16T09:30:19;19.00;99.90
46029;DHT22;31763;48.180;7.904;2022-10-16T09:32:50;18.90;99.90
46029;DHT22;31763;48.180;7.904;2022-10-16T09:35:27;19.10;99.90
46029;DHT22;31763;48.180;7.904;2022-10-16T09:38:05;19.10;99.90
46029;DHT22;31763;48.180;7.904;2022-10-16T09:40:42;19.00;99.90
46029;DHT22;31763;48.180;7.904;2022-10-16T09:43:34;19.00;99.90
46029;DHT22;31763;48.180;7.904;2022-10-16T09:49:22;19.40;99.90
46029;DHT22;31763;48.180;7.904;2022-10-16T09:52:18;19.80;99.90
46029;DHT22;31763;48.180;7.904;2022-10-16T09:55:32;19.80;99.90
46029;DHT22;31763;48.180;7.904;2022-10-16T09:59:18;19.60;99.90
46029;DHT22;31763;48.180;7.904;2022-10-16T10:02:41;19.60;99.90
46029;DHT22;31763;48.180;7.904;2022-10-16T10:05:28;19.80;99.90
46029;DHT22;31763;48.180;7.904;2022-10-16T10:08:01;19.90;99.90
46029;DHT22;31763;48.180;7.904;2022-10-16T10:10:37;19.90;99.90
46029;DHT22;31763;48.180;7.904;2022-10-16T10:13:21;19.90;99.90
46029;DHT22;31763;48.180;7.904;2022-10-16T10:15:51;20.00;99.90
46029;DHT22;31763;48.180;7.904;2022-10-16T10:18:21;20.00;99.90
46029;DHT22;31763;48.180;7.904;2022-10-16T10:21:01;20.10;99.90
46029;DHT22;31763;48.180;7.904;2022-10-16T10:23:30;20.20;99.90
46029;DHT22;31763;48.180;7.904;2022-10-16T10:37:42;19.90;99.90
46029;DHT22;31763;48.180;7.904;2022-10-16T10:40:49;19.90;99.90
46029;DHT22;31763;48.180;7.904;2022-10-16T10:46:38;19.90;99.90
46029;DHT22;31763;48.180;7.904;2022-10-16T10:52:42;20.10;99.90
46029;DHT22;31763;48.180;7.904;2022-10-16T10:55:40;20.20;99.90
46029;DHT22;31763;48.180;7.904;2022-10-16T10:58:27;20.10;99.90
46029;DHT22;31763;48.180;7.904;2022-10-16T11:01:14;20.20;99.90
46029;DHT22;31763;48.180;7.904;2022-10-16T11:06:57;20.20;99.90
46029;DHT22;31763;48.180;7.904;2022-10-16T11:09:30;20.20;99.90
46029;DHT22;31763;48.180;7.904;2022-10-16T11:12:12;20.20;99.90
46029;DHT22;31763;48.180;7.904;2022-10-16T11:15:02;20.30;99.90
46029;DHT22;31763;48.180;7.904;2022-10-16T11:17:39;20.40;99.90
46029;DHT22;31763;48.180;7.904;2022-10-16T11:20:21;20.70;99.90
46029;DHT22;31763;48.180;7.904;2022-10-16T11:22:56;20.90;99.90
46029;DHT22;31763;48.180;7.904;2022-10-16T11:35:02;20.70;99.90
46029;DHT22;31763;48.180;7.904;2022-10-16T11:39:47;20.70;99.90
46029;DHT22;31763;48.180;7.904;2022-10-16T11:42:25;20.80;99.90
46029;DHT22;31763;48.180;7.904;2022-10-16T11:54:22;20.80;99.90
46029;DHT22;31763;48.180;7.904;2022-10-16T11:56:59;20.70;99.90
46029;DHT22;31763;48.180;7.904;2022-10-16T11:59:36;20.70;99.90
46029;DHT22;31763;48.180;7.904;2022-10-16T12:02:33;20.70;99.90
46029;DHT22;31763;48.180;7.904;2022-10-16T12:08:22;20.60;99.90
46029;DHT22;31763;48.180;7.904;2022-10-16T12:10:49;20.70;99.90
46029;DHT22;31763;48.180;7.904;2022-10-16T12:13:36;20.70;99.90
46029;DHT22;31763;48.180;7.904;2022-10-16T12:16:06;20.70;99.90
46029;DHT22;31763;48.180;7.904;2022-10-16T12:18:41;20.70;99.90
46029;DHT22;31763;48.180;7.904;2022-10-16T12:21:12;20.70;99.90
46029;DHT22;31763;48.180;7.904;2022-10-16T12:23:52;20.70;99.90
46029;DHT22;31763;48.180;7.904;2022-10-16T12:26:25;20.60;99.90
46029;DHT22;31763;48.180;7.904;2022-10-16T12:28:54;20.60;99.90
46029;DHT22;31763;48.180;7.904;2022-10-16T12:31:22;20.60;99.90
46029;DHT22;31763;48.180;7.904;2022-10-16T12:34:01;20.50;99.90
46029;DHT22;31763;48.180;7.904;2022-10-16T12:36:35;20.50;99.90
46029;DHT22;31763;48.180;7.904;2022-10-16T12:39:02;20.50;99.90
46029;DHT22;31763;48.180;7.904;2022-10-16T12:41:31;20.60;99.90
46029;DHT22;31763;48.180;7.904;2022-10-16T12:44:00;20.60;99.90
46029;DHT22;31763;48.180;7.904;2022-10-16T12:51:42;21.10;99.90
46029;DHT22;31763;48.180;7.904;2022-10-16T12:54:14;21.50;99.90
46029;DHT22;31763;48.180;7.904;2022-10-16T12:59:50;22.50;99.90
46029;DHT22;31763;48.180;7.904;2022-10-16T13:11:43;23.70;99.90
46029;DHT22;31763;48.180;7.904;2022-10-16T13:17:43;23.80;99.90
46029;DHT22;31763;48.180;7.904;2022-10-16T13:20:22;23.90;99.90
46029;DHT22;31763;48.180;7.904;2022-10-16T13:23:05;24.10;99.90
46029;DHT22;31763;48.180;7.904;2022-10-16T13:28:42;24.50;99.90
46029;DHT22;31763;48.180;7.904;2022-10-16T13:31:20;25.00;99.90
46029;DHT22;31763;48.180;7.904;2022-10-16T13:33:51;25.70;99.90
46029;DHT22;31763;48.180;7.904;2022-10-16T13:36:35;25.40;99.90
46029;DHT22;31763;48.180;7.904;2022-10-16T13:44:55;25.70;99.90
46029;DHT22;31763;48.180;7.904;2022-10-16T13:47:25;25.40;99.90
46029;DHT22;31763;48.180;7.904;2022-10-16T13:50:05;25.50;99.90
46029;DHT22;31763;48.180;7.904;2022-10-16T13:52:36;25.90;99.90
46029;DHT22;31763;48.180;7.904;2022-10-16T13:55:15;26.30;99.90
46029;DHT22;31763;48.180;7.904;2022-10-16T13:57:44;25.60;99.90
46029;DHT22;31763;48.180;7.904;2022-10-16T14:00:25;25.40;99.90
46029;DHT22;31763;48.180;7.904;2022-10-16T14:03:13;24.70;99.90
46029;DHT22;31763;48.180;7.904;2022-10-16T14:05:49;24.30;99.90
46029;DHT22;31763;48.180;7.904;2022-10-16T14:08:18;25.00;99.90
46029;DHT22;31763;48.180;7.904;2022-10-16T14:10:51;25.20;99.90
46029;DHT22;31763;48.180;7.904;2022-10-16T14:13:28;25.70;99.90
46029;DHT22;31763;48.180;7.904;2022-10-16T14:16:04;25.80;99.90
46029;DHT22;31763;48.180;7.904;2022-10-16T14:18:33;25.10;99.90
46029;DHT22;31763;48.180;7.904;2022-10-16T14:21:06;25.10;99.90
46029;DHT22;31763;48.180;7.904;2022-10-16T14:23:36;25.40;99.90
46029;DHT22;31763;48.180;7.904;2022-10-16T14:28:40;24.20;99.90
46029;DHT22;31763;48.180;7.904;2022-10-16T14:31:32;24.40;99.90
46029;DHT22;31763;48.180;7.904;2022-10-16T14:34:00;24.40;99.90
46029;DHT22;31763;48.180;7.904;2022-10-16T14:36:27;24.60;99.90
46029;DHT22;31763;48.180;7.904;2022-10-16T14:41:33;24.90;99.90
